Airport ID:KJTC
Update Time (UTC):20/07/2019 01:43
Wind Speed (Knots):9
Wind Direction (Magnetic):220
Temperature (°C):27
Dew Point (°C):3
Humidity (%):21
Altimeter (inHg):30.18
Density Altitude (Feet):9800
Visibility (Miles):10+
Clouds (Hundreds of feet):CLR
Present Weather:
METAR:METAR KJTC 200140Z AUTO 23009KT 10SM CLR 27/03 A3017 RMK AO2

The data displayed is for advisory purposes only and is not to be used for flight planning or operations.

This page is not automatically refreshed. Reload the page to see current data.